Terminal Aerodrome Forecast
Issued by NWS

Home | Current Version | Previous Version | Text Only | Print | Product List | Glossary On
Versions: 1 2 3 4 5 6 7 8 9 10 11 12 13 14 15 16
000
FTUS42 KTAE 192300
TAFABY
TAF
KABY 192320Z 2000/2024 09005KT P6SM SCT040 OVC250
     FM200900 07004KT 6SM BR FEW008 BKN025
     FM201500 06009KT P6SM FEW030 SCT045 BKN250
     FM202000 04008KT P6SM VCSH SCT045 BKN250=

USA.gov is the U.S. government's official web portal to all federal, state and local government web resources and services.